createdAt,value
2019-03-28T00:01:32.825Z,4.30
2019-03-28T00:03:59.627Z,4.38
2019-03-28T00:06:26.912Z,4.38
2019-03-28T00:08:54.132Z,4.38
2019-03-28T00:11:21.104Z,4.31
2019-03-28T00:13:48.349Z,4.41
2019-03-28T00:16:15.104Z,4.40
2019-03-28T00:18:42.475Z,4.34
2019-03-28T00:21:09.317Z,4.17
2019-03-28T00:23:36.539Z,4.15
2019-03-28T00:26:03.497Z,3.99
2019-03-28T00:28:30.391Z,4.11
2019-03-28T00:30:57.352Z,4.12
2019-03-28T00:33:24.141Z,4.10
2019-03-28T00:35:51.437Z,4.14
2019-03-28T00:38:18.591Z,4.03
2019-03-28T00:40:45.338Z,3.95
2019-03-28T00:43:12.235Z,4.00
2019-03-28T00:45:39.328Z,4.13
2019-03-28T00:48:06.179Z,3.89
2019-03-28T00:50:33.269Z,3.64
2019-03-28T00:53:00.137Z,3.56
2019-03-28T00:55:26.905Z,3.66
2019-03-28T00:57:53.681Z,3.73
2019-03-28T01:00:22.173Z,3.72
2019-03-28T01:02:48.917Z,3.61
2019-03-28T01:05:15.664Z,3.79
2019-03-28T01:07:42.439Z,3.73
2019-03-28T01:10:09.917Z,3.64
2019-03-28T01:12:37.267Z,3.60
2019-03-28T01:15:06.747Z,3.76
2019-03-28T01:17:33.734Z,3.75
2019-03-28T01:20:05.419Z,3.86
2019-03-28T01:22:32.277Z,3.82
2019-03-28T01:24:59.035Z,3.89
2019-03-28T01:27:26.204Z,3.87
2019-03-28T01:29:53.110Z,3.84
2019-03-28T01:32:22.625Z,3.82
2019-03-28T01:34:49.493Z,3.74
2019-03-28T01:37:16.324Z,3.62
2019-03-28T01:39:43.215Z,3.73
2019-03-28T01:42:10.207Z,3.65
2019-03-28T01:44:37.024Z,3.79
2019-03-28T01:47:03.915Z,3.68
2019-03-28T01:49:30.869Z,3.71
2019-03-28T01:51:57.852Z,3.73
2019-03-28T01:54:25.167Z,3.74
2019-03-28T01:56:51.918Z,3.72
2019-03-28T01:59:18.862Z,3.73
2019-03-28T02:01:45.623Z,3.79
2019-03-28T02:04:12.410Z,3.69
2019-03-28T02:06:39.653Z,3.58
2019-03-28T02:09:06.732Z,3.59
2019-03-28T02:11:33.512Z,3.57
2019-03-28T02:14:00.301Z,3.45
2019-03-28T02:16:27.298Z,3.42
2019-03-28T02:18:54.212Z,3.36
2019-03-28T02:21:21.665Z,3.31
2019-03-28T02:23:48.754Z,3.40
2019-03-28T02:26:15.941Z,3.28
2019-03-28T02:28:42.932Z,3.22
2019-03-28T02:31:10.136Z,3.19
2019-03-28T02:33:37.265Z,3.19
2019-03-28T02:36:04.195Z,3.29
2019-03-28T02:38:30.935Z,3.33
2019-03-28T02:40:58.448Z,3.53
2019-03-28T02:43:25.185Z,3.51
2019-03-28T02:45:52.776Z,3.47
2019-03-28T02:48:19.824Z,3.39
2019-03-28T02:50:46.585Z,3.30
2019-03-28T02:53:13.764Z,3.34
2019-03-28T02:55:40.945Z,3.16
2019-03-28T02:58:08.295Z,3.30
2019-03-28T03:00:35.408Z,3.39
2019-03-28T03:03:02.269Z,3.26
2019-03-28T03:05:29.136Z,3.27
2019-03-28T03:07:55.924Z,3.21
2019-03-28T03:10:22.814Z,3.12
2019-03-28T03:12:53.681Z,2.98
2019-03-28T03:15:20.780Z,2.98
2019-03-28T03:17:47.923Z,3.15
2019-03-28T03:20:15.383Z,3.17
2019-03-28T03:22:42.220Z,3.24
2019-03-28T03:25:09.577Z,3.18
2019-03-28T03:27:36.547Z,3.10
2019-03-28T03:30:07.919Z,3.10
2019-03-28T03:32:35.025Z,3.02
2019-03-28T03:35:02.704Z,3.05
2019-03-28T03:37:30.122Z,3.05
2019-03-28T03:39:57.802Z,3.05
2019-03-28T03:42:25.448Z,3.00
2019-03-28T03:44:52.240Z,2.98
2019-03-28T03:47:19.773Z,3.01
2019-03-28T03:49:46.848Z,2.85
2019-03-28T03:52:13.594Z,2.81
2019-03-28T03:54:41.238Z,2.75
2019-03-28T03:57:08.059Z,2.64
2019-03-28T03:59:35.300Z,2.78
2019-03-28T04:02:02.268Z,2.71
2019-03-28T04:04:31.931Z,2.71
2019-03-28T04:06:58.810Z,2.74
2019-03-28T04:09:26.100Z,2.56
2019-03-28T04:11:53.405Z,2.58
2019-03-28T04:14:20.692Z,2.64
2019-03-28T04:16:47.506Z,2.63
2019-03-28T04:19:14.352Z,2.66
2019-03-28T04:21:41.224Z,2.67
2019-03-28T04:24:08.068Z,2.75
2019-03-28T04:26:35.343Z,2.61
2019-03-28T04:29:02.072Z,2.60
2019-03-28T04:31:29.226Z,2.53
2019-03-28T04:33:56.531Z,2.40
2019-03-28T04:36:23.740Z,2.18
2019-03-28T04:38:50.656Z,2.22
2019-03-28T04:41:17.800Z,2.32
2019-03-28T04:43:44.765Z,2.39
2019-03-28T04:46:13.960Z,2.33
2019-03-28T04:48:40.747Z,2.45
2019-03-28T04:51:07.471Z,2.15
2019-03-28T04:53:37.529Z,2.17
2019-03-28T04:56:04.633Z,2.24
2019-03-28T04:58:43.961Z,2.39
2019-03-28T05:01:00.275Z,2.39
2019-03-28T05:03:27.068Z,2.33
2019-03-28T05:05:54.184Z,2.32
2019-03-28T05:08:21.381Z,2.31
2019-03-28T05:10:48.168Z,2.21
2019-03-28T05:13:15.035Z,2.36
2019-03-28T05:15:41.770Z,2.37
2019-03-28T05:18:08.672Z,2.37
2019-03-28T05:20:35.387Z,2.33
2019-03-28T05:23:02.218Z,2.37
2019-03-28T05:25:29.050Z,2.38
2019-03-28T05:27:56.127Z,2.39
2019-03-28T05:30:23.053Z,2.52
2019-03-28T05:32:50.204Z,2.46
2019-03-28T05:35:17.011Z,2.46
2019-03-28T05:37:44.521Z,2.42
2019-03-28T05:40:12.410Z,2.37
2019-03-28T05:42:39.221Z,2.36
2019-03-28T05:45:06.694Z,2.36
2019-03-28T05:47:34.205Z,2.41
2019-03-28T05:50:01.582Z,2.47
2019-03-28T05:52:29.243Z,2.47
2019-03-28T05:54:56.464Z,2.43
2019-03-28T05:57:32.236Z,2.40
2019-03-28T05:59:58.990Z,2.44
2019-03-28T06:02:25.829Z,2.55
2019-03-28T06:04:52.576Z,2.57
2019-03-28T06:07:19.336Z,2.60
2019-03-28T06:09:46.306Z,2.53
2019-03-28T06:12:13.153Z,2.61
2019-03-28T06:14:41.079Z,2.58
2019-03-28T06:17:07.870Z,2.58
2019-03-28T06:19:34.733Z,2.56
2019-03-28T06:22:02.138Z,2.52
2019-03-28T06:24:28.935Z,2.50
2019-03-28T06:26:56.133Z,2.49
2019-03-28T06:29:24.318Z,2.57
2019-03-28T06:31:55.575Z,2.62
2019-03-28T06:34:20.416Z,2.74
2019-03-28T06:36:47.262Z,2.87
2019-03-28T06:39:14.014Z,2.80
2019-03-28T06:41:40.856Z,2.77
2019-03-28T06:44:07.752Z,2.82
2019-03-28T06:46:34.611Z,2.90
2019-03-28T06:49:03.654Z,3.05
2019-03-28T06:51:30.426Z,3.08
2019-03-28T06:53:57.337Z,3.20
2019-03-28T06:56:25.598Z,3.29
2019-03-28T06:58:52.520Z,3.29
2019-03-28T07:01:19.390Z,3.35
2019-03-28T07:03:47.512Z,3.39
2019-03-28T07:06:14.896Z,3.41
2019-03-28T07:08:42.470Z,3.51
2019-03-28T07:11:09.815Z,3.60
2019-03-28T07:13:36.964Z,3.72
2019-03-28T07:16:04.265Z,3.79
2019-03-28T07:18:34.039Z,3.91
2019-03-28T07:21:00.784Z,4.05
2019-03-28T07:23:27.761Z,4.14
2019-03-28T07:25:54.799Z,4.20
2019-03-28T07:28:21.658Z,4.33
2019-03-28T07:30:53.413Z,4.38
2019-03-28T07:33:22.618Z,4.45
2019-03-28T07:35:49.385Z,4.56
2019-03-28T07:38:16.131Z,4.68
2019-03-28T07:40:43.162Z,4.80
2019-03-28T07:43:10.529Z,4.93
2019-03-28T07:45:39.461Z,5.08
2019-03-28T07:48:06.429Z,5.23
2019-03-28T07:50:34.663Z,5.36
2019-03-28T07:53:02.286Z,5.59
2019-03-28T07:55:29.508Z,5.78
2019-03-28T07:57:56.342Z,5.96
2019-03-28T08:00:24.131Z,6.17
2019-03-28T08:02:52.758Z,6.38
2019-03-28T08:05:20.357Z,6.58
2019-03-28T08:07:47.355Z,6.78
2019-03-28T08:10:15.076Z,6.97
2019-03-28T08:12:42.175Z,7.20
2019-03-28T08:15:10.953Z,7.51
2019-03-28T08:17:38.212Z,7.78
2019-03-28T08:20:09.867Z,8.10
2019-03-28T08:22:37.429Z,8.40
2019-03-28T08:25:11.166Z,8.74
2019-03-28T08:27:36.489Z,9.00
2019-03-28T08:30:17.576Z,9.22
2019-03-28T08:32:39.622Z,9.44
2019-03-28T08:35:11.109Z,9.73
2019-03-28T08:37:39.298Z,10.02
2019-03-28T08:40:08.615Z,10.31
2019-03-28T08:42:35.604Z,10.58
2019-03-28T08:45:07.158Z,10.85
2019-03-28T08:47:34.300Z,11.10
2019-03-28T08:50:02.267Z,11.29
2019-03-28T08:52:29.651Z,11.53
2019-03-28T08:54:56.877Z,11.77
2019-03-28T08:57:25.895Z,12.02
2019-03-28T08:59:55.718Z,12.25
2019-03-28T09:02:23.056Z,12.49
2019-03-28T09:04:50.357Z,12.73
2019-03-28T09:07:17.662Z,12.89
2019-03-28T09:09:45.242Z,13.01
2019-03-28T09:12:12.406Z,13.19
2019-03-28T09:17:27.413Z,13.56
2019-03-28T09:19:54.713Z,13.71
2019-03-28T09:22:21.551Z,13.66
2019-03-28T09:24:48.730Z,13.84
2019-03-28T09:27:17.499Z,14.08
2019-03-28T09:29:44.280Z,14.30
2019-03-28T09:32:12.225Z,14.47
2019-03-28T09:34:39.207Z,14.56
2019-03-28T09:37:06.501Z,14.69
2019-03-28T09:39:33.502Z,14.70
2019-03-28T09:42:00.476Z,14.78
2019-03-28T09:44:28.102Z,14.86
2019-03-28T09:46:55.840Z,14.95
2019-03-28T09:49:23.712Z,14.97
2019-03-28T09:51:51.882Z,15.19
2019-03-28T09:54:20.286Z,15.42
2019-03-28T09:56:47.269Z,15.48
2019-03-28T09:59:14.305Z,15.55
2019-03-28T10:01:41.562Z,15.64
2019-03-28T10:04:08.460Z,15.71
2019-03-28T10:06:36.304Z,15.70
2019-03-28T10:09:06.132Z,15.75
2019-03-28T10:11:33.511Z,15.83
2019-03-28T10:14:00.622Z,16.08
2019-03-28T10:16:27.952Z,16.17
2019-03-28T10:18:57.507Z,16.28
2019-03-28T10:21:24.628Z,16.36
2019-03-28T10:23:51.517Z,16.44
2019-03-28T10:26:19.755Z,16.57
2019-03-28T10:28:46.709Z,16.72
2019-03-28T10:31:16.792Z,16.92
2019-03-28T10:33:43.348Z,16.94
2019-03-28T10:36:10.256Z,16.95
2019-03-28T10:38:37.536Z,16.93
2019-03-28T10:41:04.485Z,17.09
2019-03-28T10:43:31.667Z,17.27
2019-03-28T10:45:59.312Z,17.10
2019-03-28T10:48:30.353Z,17.29
2019-03-28T10:50:58.223Z,17.35
2019-03-28T10:53:25.448Z,17.39
2019-03-28T10:55:56.023Z,17.59
2019-03-28T10:58:25.640Z,17.84
2019-03-28T11:00:54.905Z,17.78
2019-03-28T11:03:22.824Z,17.69
2019-03-28T11:05:57.846Z,17.96
2019-03-28T11:08:26.227Z,18.17
2019-03-28T11:10:53.360Z,18.59
2019-03-28T11:13:20.605Z,18.97
2019-03-28T11:15:48.429Z,19.29
2019-03-28T11:18:15.817Z,18.92
2019-03-28T11:20:44.396Z,18.43
2019-03-28T11:23:12.240Z,18.11
2019-03-28T11:25:39.215Z,17.89
2019-03-28T11:28:07.212Z,18.07
2019-03-28T11:30:36.092Z,18.26
2019-03-28T11:33:06.299Z,18.45
2019-03-28T11:35:32.887Z,18.70
2019-03-28T11:38:00.232Z,18.92
2019-03-28T11:40:27.652Z,19.18
2019-03-28T11:42:54.816Z,19.63
2019-03-28T11:45:21.846Z,19.93
2019-03-28T11:47:49.314Z,19.88
2019-03-28T11:50:17.403Z,20.53
2019-03-28T11:52:44.737Z,20.87
2019-03-28T11:55:12.493Z,21.69
2019-03-28T11:57:39.367Z,22.25
2019-03-28T12:00:16.311Z,22.58
2019-03-28T12:02:43.568Z,22.98
2019-03-28T12:05:10.785Z,23.15
2019-03-28T12:07:37.975Z,23.14
2019-03-28T12:10:08.460Z,23.04
2019-03-28T12:12:35.767Z,23.15
2019-03-28T12:15:06.469Z,23.62
2019-03-28T12:17:33.831Z,24.01
2019-03-28T12:20:00.810Z,23.97
2019-03-28T12:22:28.216Z,24.06
2019-03-28T12:25:09.207Z,23.99
2019-03-28T12:28:02.126Z,24.12
2019-03-28T12:30:26.350Z,24.39
2019-03-28T12:32:53.380Z,23.38
2019-03-28T12:35:20.905Z,22.43
2019-03-28T12:37:47.952Z,22.04
2019-03-28T12:40:15.375Z,22.68
2019-03-28T12:42:43.113Z,21.38
2019-03-28T12:45:12.411Z,20.22
2019-03-28T12:47:42.645Z,19.16
2019-03-28T12:50:15.995Z,18.43
2019-03-28T12:52:43.419Z,17.87
2019-03-28T12:55:11.158Z,17.59
2019-03-28T12:57:38.101Z,17.37
2019-03-28T13:00:09.723Z,17.21
2019-03-28T13:02:36.977Z,17.21
2019-03-28T13:05:13.458Z,18.02
2019-03-28T13:07:40.678Z,19.54
2019-03-28T13:10:10.710Z,19.21
2019-03-28T13:12:40.049Z,18.46
2019-03-28T13:15:07.639Z,18.25
2019-03-28T13:17:34.667Z,17.93
2019-03-28T13:20:07.998Z,17.82
2019-03-28T13:22:36.185Z,17.61
2019-03-28T13:25:05.505Z,17.29
2019-03-28T13:27:34.658Z,16.84
2019-03-28T13:30:02.412Z,16.56
2019-03-28T13:32:41.022Z,16.45
2019-03-28T13:34:58.994Z,16.30
2019-03-28T13:37:30.242Z,16.17
2019-03-28T13:39:57.542Z,16.08
2019-03-28T13:42:27.321Z,16.11
2019-03-28T13:44:54.426Z,16.31
2019-03-28T13:47:24.560Z,16.59
2019-03-28T13:49:51.966Z,16.90
2019-03-28T13:52:19.520Z,17.01
2019-03-28T13:54:46.790Z,17.33
2019-03-28T13:57:18.073Z,17.51
2019-03-28T13:59:45.049Z,17.89
2019-03-28T14:02:13.035Z,17.78
2019-03-28T14:04:40.328Z,17.66
2019-03-28T14:07:10.184Z,17.51
2019-03-28T14:09:37.276Z,17.57
2019-03-28T14:12:04.638Z,17.67
2019-03-28T14:14:31.758Z,17.72
2019-03-28T14:16:58.606Z,17.71
2019-03-28T14:19:28.065Z,17.68
2019-03-28T14:21:55.119Z,17.92
2019-03-28T14:24:22.402Z,17.58
2019-03-28T14:26:49.966Z,17.32
2019-03-28T14:29:17.426Z,17.11
2019-03-28T14:31:45.149Z,16.95
2019-03-28T14:34:11.959Z,16.88
2019-03-28T14:36:38.912Z,17.08
2019-03-28T14:39:06.930Z,17.24
2019-03-28T14:41:34.743Z,17.25
2019-03-28T14:44:02.466Z,17.29
2019-03-28T14:46:29.922Z,17.30
2019-03-28T14:48:56.962Z,17.12
2019-03-28T14:51:23.992Z,17.10
2019-03-28T14:53:51.434Z,17.24
2019-03-28T14:56:19.929Z,17.25
2019-03-28T14:58:49.609Z,17.10
2019-03-28T15:01:16.888Z,17.05
2019-03-28T15:03:43.753Z,16.88
2019-03-28T15:06:10.635Z,16.70
2019-03-28T15:08:37.877Z,16.77
2019-03-28T15:11:06.835Z,16.75
2019-03-28T15:13:35.887Z,16.57
2019-03-28T15:16:02.623Z,16.41
2019-03-28T15:18:30.013Z,16.32
2019-03-28T15:20:57.640Z,16.21
2019-03-28T15:23:24.654Z,16.06
2019-03-28T15:25:51.486Z,15.92
2019-03-28T15:28:19.290Z,15.72
2019-03-28T15:30:46.582Z,15.66
2019-03-28T15:33:15.093Z,15.58
2019-03-28T15:35:42.540Z,15.55
2019-03-28T15:38:09.868Z,15.51
2019-03-28T15:40:37.380Z,15.47
2019-03-28T15:43:04.557Z,15.38
2019-03-28T15:45:31.401Z,15.19
2019-03-28T15:47:58.249Z,15.11
2019-03-28T15:50:25.175Z,15.13
2019-03-28T15:52:52.058Z,15.09
2019-03-28T15:55:21.069Z,15.07
2019-03-28T15:57:47.875Z,15.09
2019-03-28T16:00:15.371Z,15.05
2019-03-28T16:02:42.265Z,14.99
2019-03-28T16:05:09.384Z,14.99
2019-03-28T16:07:36.365Z,15.01
2019-03-28T16:10:06.154Z,15.03
2019-03-28T16:12:32.983Z,14.91
2019-03-28T16:15:00.098Z,14.82
2019-03-28T16:17:27.132Z,14.80
2019-03-28T16:19:54.024Z,14.75
2019-03-28T16:22:20.946Z,14.81
2019-03-28T16:24:48.328Z,14.80
2019-03-28T16:27:15.169Z,14.83
2019-03-28T16:29:42.072Z,14.79
2019-03-28T16:32:10.317Z,14.75
2019-03-28T16:34:37.125Z,14.74
2019-03-28T16:37:13.818Z,14.69
2019-03-28T16:39:44.905Z,14.66
2019-03-28T16:42:11.751Z,14.65
2019-03-28T16:44:41.610Z,14.59
2019-03-28T16:47:08.604Z,14.56
2019-03-28T16:49:35.570Z,14.53
2019-03-28T16:52:02.994Z,14.49
2019-03-28T16:54:29.961Z,14.50
2019-03-28T16:57:00.782Z,14.46
2019-03-28T16:59:28.618Z,14.40
2019-03-28T17:02:05.008Z,14.32
2019-03-28T17:04:43.276Z,14.27
2019-03-28T17:10:51.957Z,14.15
2019-03-28T17:13:22.717Z,14.11
2019-03-28T17:15:51.026Z,14.08
2019-03-28T17:18:19.185Z,14.01
2019-03-28T17:20:46.561Z,13.99
2019-03-28T17:23:13.744Z,13.96
2019-03-28T17:25:45.959Z,13.94
2019-03-28T17:28:13.042Z,13.88
2019-03-28T17:30:40.294Z,13.86
2019-03-28T17:33:07.532Z,13.81
2019-03-28T17:35:36.836Z,13.78
2019-03-28T17:38:03.826Z,13.74
2019-03-28T17:40:30.681Z,13.65
2019-03-28T17:43:00.078Z,13.64
2019-03-28T17:45:30.252Z,13.56
2019-03-28T17:47:58.374Z,13.55
2019-03-28T17:50:26.287Z,13.50
2019-03-28T17:53:18.075Z,13.41
2019-03-28T17:55:48.577Z,13.38
2019-03-28T17:58:18.099Z,13.37
2019-03-28T18:00:54.671Z,13.31
2019-03-28T18:03:31.014Z,13.23
2019-03-28T18:05:58.508Z,13.21
2019-03-28T18:08:21.912Z,13.12
2019-03-28T18:10:49.131Z,13.05
2019-03-28T18:13:16.173Z,13.02
2019-03-28T18:15:43.266Z,12.96
2019-03-28T18:18:11.877Z,12.91
2019-03-28T18:20:39.043Z,12.83
2019-03-28T18:23:06.426Z,12.80
2019-03-28T18:25:33.803Z,12.72
2019-03-28T18:28:01.082Z,12.71
2019-03-28T18:30:28.464Z,12.61
2019-03-28T18:32:55.896Z,12.60
2019-03-28T18:35:23.557Z,12.55
2019-03-28T18:37:51.068Z,12.53
2019-03-28T18:40:18.482Z,12.45
2019-03-28T18:42:49.139Z,12.24
2019-03-28T18:45:16.328Z,12.13
2019-03-28T18:47:43.903Z,12.07
2019-03-28T18:50:11.992Z,11.96
2019-03-28T18:52:38.791Z,11.93
2019-03-28T18:55:07.069Z,11.83
2019-03-28T18:57:37.931Z,11.78
2019-03-28T19:00:09.828Z,11.74
2019-03-28T19:02:37.308Z,11.72
2019-03-28T19:05:18.652Z,11.69
2019-03-28T19:07:35.565Z,11.62
2019-03-28T19:10:05.764Z,11.55
2019-03-28T19:12:36.171Z,11.60
2019-03-28T19:15:08.258Z,11.56
2019-03-28T19:17:35.478Z,11.43
2019-03-28T19:20:06.584Z,11.41
2019-03-28T19:22:33.532Z,11.37
2019-03-28T19:25:00.827Z,11.31
2019-03-28T19:27:31.048Z,11.20
2019-03-28T19:29:57.942Z,11.17
2019-03-28T19:32:24.789Z,11.19
2019-03-28T19:34:51.840Z,11.20
2019-03-28T19:37:22.846Z,11.15
2019-03-28T19:39:50.077Z,11.10
2019-03-28T19:42:17.833Z,11.05
2019-03-28T19:44:46.282Z,10.99
2019-03-28T19:47:13.729Z,10.96
2019-03-28T19:49:42.698Z,10.92
2019-03-28T19:52:11.839Z,10.87
2019-03-28T19:54:41.048Z,10.90
2019-03-28T19:57:08.041Z,10.92
2019-03-28T19:59:35.334Z,10.90
2019-03-28T20:02:02.188Z,10.83
2019-03-28T20:04:29.223Z,10.82
2019-03-28T20:06:56.317Z,10.84
2019-03-28T20:09:23.464Z,10.77
2019-03-28T20:11:52.239Z,10.76
2019-03-28T20:14:19.281Z,10.80
2019-03-28T20:16:46.245Z,10.76
2019-03-28T20:19:13.132Z,10.74
2019-03-28T20:21:40.320Z,10.70
2019-03-28T20:24:07.769Z,10.67
2019-03-28T20:26:34.965Z,10.62
2019-03-28T20:29:01.889Z,10.49
2019-03-28T20:31:29.128Z,10.42
2019-03-28T20:33:56.230Z,10.17
2019-03-28T20:36:36.818Z,10.14
2019-03-28T20:39:03.348Z,10.12
2019-03-28T20:41:21.901Z,10.22
2019-03-28T20:43:48.710Z,10.18
2019-03-28T20:46:15.783Z,10.22
2019-03-28T20:48:43.099Z,10.30
2019-03-28T20:51:10.229Z,10.30
2019-03-28T20:53:37.222Z,10.33
2019-03-28T20:56:06.163Z,10.29
2019-03-28T20:58:33.193Z,10.28
2019-03-28T21:01:00.349Z,10.25
2019-03-28T21:03:27.243Z,10.24
2019-03-28T21:05:54.622Z,10.23
2019-03-28T21:08:21.856Z,10.23
2019-03-28T21:10:48.620Z,10.19
2019-03-28T21:13:20.967Z,10.07
2019-03-28T21:15:47.830Z,10.03
2019-03-28T21:18:14.903Z,9.97
2019-03-28T21:20:42.165Z,9.94
2019-03-28T21:23:09.277Z,9.83
2019-03-28T21:25:36.274Z,9.83
2019-03-28T21:28:03.336Z,9.77
2019-03-28T21:30:46.527Z,9.72
2019-03-28T21:33:04.825Z,9.70
2019-03-28T21:35:32.348Z,9.69
2019-03-28T21:37:59.194Z,9.73
2019-03-28T21:40:27.666Z,9.76
2019-03-28T21:42:54.611Z,9.69
2019-03-28T21:45:21.480Z,9.74
2019-03-28T21:47:48.240Z,9.71
2019-03-28T21:50:16.405Z,9.69
2019-03-28T21:52:43.157Z,9.69
2019-03-28T21:55:11.579Z,9.68
2019-03-28T21:57:38.648Z,9.58
2019-03-28T22:00:06.657Z,9.58
2019-03-28T22:02:35.890Z,9.62
2019-03-28T22:05:04.867Z,9.56
2019-03-28T22:07:31.645Z,9.48
2019-03-28T22:09:58.410Z,9.29
2019-03-28T22:12:25.511Z,9.33
2019-03-28T22:14:52.507Z,9.34
2019-03-28T22:17:19.266Z,9.31
2019-03-28T22:19:46.128Z,9.27
2019-03-28T22:22:12.889Z,9.36
2019-03-28T22:24:39.959Z,9.33
2019-03-28T22:27:07.144Z,9.13
2019-03-28T22:29:33.850Z,8.97
2019-03-28T22:32:03.629Z,9.03
2019-03-28T22:34:30.496Z,9.01
2019-03-28T22:36:59.525Z,9.07
2019-03-28T22:39:25.992Z,8.98
2019-03-28T22:41:55.715Z,8.84
2019-03-28T22:44:22.456Z,8.87
2019-03-28T22:46:49.583Z,8.77
2019-03-28T22:49:16.896Z,8.78
2019-03-28T22:51:44.217Z,8.74
2019-03-28T22:54:11.025Z,8.74
2019-03-28T22:56:37.747Z,8.76
2019-03-28T22:59:04.510Z,8.73
2019-03-28T23:01:31.786Z,8.75
2019-03-28T23:03:58.656Z,8.72
2019-03-28T23:06:25.416Z,8.70
2019-03-28T23:08:52.356Z,8.69
2019-03-28T23:11:19.977Z,8.74
2019-03-28T23:13:46.949Z,8.74
2019-03-28T23:16:14.463Z,8.78
2019-03-28T23:18:41.482Z,8.66
2019-03-28T23:21:08.867Z,8.55
2019-03-28T23:23:35.755Z,8.54
2019-03-28T23:26:02.831Z,8.44
2019-03-28T23:28:31.441Z,8.40
2019-03-28T23:30:58.444Z,8.29
2019-03-28T23:33:25.541Z,8.23
2019-03-28T23:35:52.536Z,8.17
2019-03-28T23:38:22.047Z,8.18
2019-03-28T23:40:48.999Z,8.24
2019-03-28T23:43:15.962Z,8.23
2019-03-28T23:45:42.898Z,8.04
2019-03-28T23:48:09.824Z,8.03
2019-03-28T23:50:36.608Z,7.98
2019-03-28T23:53:03.511Z,7.99
2019-03-28T23:55:30.762Z,8.00
2019-03-28T23:57:57.554Z,8.07
